Lenox, Michigan
Current Conditions -  °F | °C
As of 5:55 PM on Wednesday 22 Oct 2014 (Local Time) from KMTC Reporting Station
Scattered Clouds Scattered Clouds  
Wind Chill: 11°   Ceiling: Unl
Heat Index: 11°   Visibility: 12mi
Dew Point:   Wind: 10mph
Humidity: 64%   Direction: 340°NNW
Pressure: 30.26"   Gusts: NA
Location:  42.7851°N, 82.803°W
Report Text: KMTC 222155Z 34009KT 12SM SCT034 11/04 A3026 RMK SLP259 T01080042
Loading
Personal Weather Stations






























Interactive Weather Map
Tropical Storm Tracking
New forecast layout! Learn more

10-Day Weather Forecast

Advertisements
Track Severe Weather on mobile